sensor_id;sensor_type;location;lat;lon;timestamp;temperature;humidity
19646;DHT22;9971;52.446;13.452;2022-09-21T00:03:45;10.30;99.90
19646;DHT22;9971;52.446;13.452;2022-09-21T00:08:48;10.30;99.90
19646;DHT22;9971;52.446;13.452;2022-09-21T00:13:55;10.40;99.90
19646;DHT22;9971;52.446;13.452;2022-09-21T00:19:03;10.40;99.90
19646;DHT22;9971;52.446;13.452;2022-09-21T00:24:06;10.50;99.90
19646;DHT22;9971;52.446;13.452;2022-09-21T00:29:09;10.40;99.90
19646;DHT22;9971;52.446;13.452;2022-09-21T00:34:11;10.40;99.90
19646;DHT22;9971;52.446;13.452;2022-09-21T00:39:13;10.40;99.90
19646;DHT22;9971;52.446;13.452;2022-09-21T00:49:46;10.40;99.90
19646;DHT22;9971;52.446;13.452;2022-09-21T00:54:52;10.50;99.90
19646;DHT22;9971;52.446;13.452;2022-09-21T01:00:01;10.40;99.90
19646;DHT22;9971;52.446;13.452;2022-09-21T01:05:04;10.40;99.90
19646;DHT22;9971;52.446;13.452;2022-09-21T01:10:07;10.50;99.90
19646;DHT22;9971;52.446;13.452;2022-09-21T01:21:23;10.50;99.90
19646;DHT22;9971;52.446;13.452;2022-09-21T01:27:56;10.50;99.90
19646;DHT22;9971;52.446;13.452;2022-09-21T01:37:44;10.50;99.90
19646;DHT22;9971;52.446;13.452;2022-09-21T01:42:45;10.40;99.90
19646;DHT22;9971;52.446;13.452;2022-09-21T01:47:47;10.30;99.90
19646;DHT22;9971;52.446;13.452;2022-09-21T01:52:51;10.20;99.90
19646;DHT22;9971;52.446;13.452;2022-09-21T01:57:54;10.10;99.90
19646;DHT22;9971;52.446;13.452;2022-09-21T02:02:56;10.20;99.90
19646;DHT22;9971;52.446;13.452;2022-09-21T02:07:57;10.30;99.90
19646;DHT22;9971;52.446;13.452;2022-09-21T02:13:00;10.20;99.90
19646;DHT22;9971;52.446;13.452;2022-09-21T02:18:04;10.10;99.90
19646;DHT22;9971;52.446;13.452;2022-09-21T02:23:11;10.00;99.90
19646;DHT22;9971;52.446;13.452;2022-09-21T02:28:36;9.90;99.90
19646;DHT22;9971;52.446;13.452;2022-09-21T02:33:46;9.90;99.90
19646;DHT22;9971;52.446;13.452;2022-09-21T02:38:52;9.80;99.90
19646;DHT22;9971;52.446;13.452;2022-09-21T02:44:14;9.80;99.90
19646;DHT22;9971;52.446;13.452;2022-09-21T02:49:17;9.80;99.90
19646;DHT22;9971;52.446;13.452;2022-09-21T02:54:19;9.70;99.90
19646;DHT22;9971;52.446;13.452;2022-09-21T02:59:20;9.70;99.90
19646;DHT22;9971;52.446;13.452;2022-09-21T03:04:22;9.70;99.90
19646;DHT22;9971;52.446;13.452;2022-09-21T03:09:24;9.70;99.90
19646;DHT22;9971;52.446;13.452;2022-09-21T03:14:26;9.60;99.90
19646;DHT22;9971;52.446;13.452;2022-09-21T03:19:29;9.50;99.90
19646;DHT22;9971;52.446;13.452;2022-09-21T03:24:32;9.40;99.90
19646;DHT22;9971;52.446;13.452;2022-09-21T03:29:40;9.40;99.90
19646;DHT22;9971;52.446;13.452;2022-09-21T03:34:43;9.60;99.90
19646;DHT22;9971;52.446;13.452;2022-09-21T03:39:46;9.70;99.90
19646;DHT22;9971;52.446;13.452;2022-09-21T03:44:48;9.70;99.90
19646;DHT22;9971;52.446;13.452;2022-09-21T03:49:50;9.80;99.90
19646;DHT22;9971;52.446;13.452;2022-09-21T03:54:53;9.60;99.90
19646;DHT22;9971;52.446;13.452;2022-09-21T03:59:57;9.70;99.90
19646;DHT22;9971;52.446;13.452;2022-09-21T04:05:04;9.70;99.90
19646;DHT22;9971;52.446;13.452;2022-09-21T04:10:07;9.70;99.90
19646;DHT22;9971;52.446;13.452;2022-09-21T04:15:10;9.60;99.90
19646;DHT22;9971;52.446;13.452;2022-09-21T04:20:13;9.70;99.90
19646;DHT22;9971;52.446;13.452;2022-09-21T04:25:15;9.70;99.90
19646;DHT22;9971;52.446;13.452;2022-09-21T04:30:18;9.70;99.90
19646;DHT22;9971;52.446;13.452;2022-09-21T04:35:20;9.60;99.90
19646;DHT22;9971;52.446;13.452;2022-09-21T04:40:23;9.70;99.90
19646;DHT22;9971;52.446;13.452;2022-09-21T04:45:27;9.70;99.90
19646;DHT22;9971;52.446;13.452;2022-09-21T04:50:30;9.70;99.90
19646;DHT22;9971;52.446;13.452;2022-09-21T04:55:32;9.70;99.90
19646;DHT22;9971;52.446;13.452;2022-09-21T05:00:35;9.70;99.90
19646;DHT22;9971;52.446;13.452;2022-09-21T05:05:48;9.70;99.90
19646;DHT22;9971;52.446;13.452;2022-09-21T05:10:50;9.70;99.90
19646;DHT22;9971;52.446;13.452;2022-09-21T05:15:52;9.70;99.90
19646;DHT22;9971;52.446;13.452;2022-09-21T05:20:55;9.80;99.90
19646;DHT22;9971;52.446;13.452;2022-09-21T05:25:58;9.80;99.90
19646;DHT22;9971;52.446;13.452;2022-09-21T05:31:10;9.90;99.90
19646;DHT22;9971;52.446;13.452;2022-09-21T05:36:32;9.90;99.90
19646;DHT22;9971;52.446;13.452;2022-09-21T05:41:28;9.90;99.90
19646;DHT22;9971;52.446;13.452;2022-09-21T05:46:38;10.00;99.90
19646;DHT22;9971;52.446;13.452;2022-09-21T05:51:59;10.00;99.90
19646;DHT22;9971;52.446;13.452;2022-09-21T05:57:04;10.00;99.90
19646;DHT22;9971;52.446;13.452;2022-09-21T06:02:14;10.10;99.90
19646;DHT22;9971;52.446;13.452;2022-09-21T06:07:15;10.20;99.90
19646;DHT22;9971;52.446;13.452;2022-09-21T06:12:18;10.20;99.90
19646;DHT22;9971;52.446;13.452;2022-09-21T06:17:21;10.30;99.90
19646;DHT22;9971;52.446;13.452;2022-09-21T06:22:23;10.40;99.90
19646;DHT22;9971;52.446;13.452;2022-09-21T06:27:26;10.50;99.90
19646;DHT22;9971;52.446;13.452;2022-09-21T06:32:27;10.60;99.90
19646;DHT22;9971;52.446;13.452;2022-09-21T06:37:30;10.80;99.90
19646;DHT22;9971;52.446;13.452;2022-09-21T06:42:32;11.00;99.90
19646;DHT22;9971;52.446;13.452;2022-09-21T06:47:36;11.20;99.90
19646;DHT22;9971;52.446;13.452;2022-09-21T06:52:38;11.40;99.90
19646;DHT22;9971;52.446;13.452;2022-09-21T06:57:41;11.60;99.90
19646;DHT22;9971;52.446;13.452;2022-09-21T07:02:43;11.80;99.90
19646;DHT22;9971;52.446;13.452;2022-09-21T07:07:46;11.90;99.90
19646;DHT22;9971;52.446;13.452;2022-09-21T07:12:48;12.10;99.90
19646;DHT22;9971;52.446;13.452;2022-09-21T07:17:50;12.20;99.90
19646;DHT22;9971;52.446;13.452;2022-09-21T07:22:54;12.40;99.90
19646;DHT22;9971;52.446;13.452;2022-09-21T07:27:58;12.60;99.90
19646;DHT22;9971;52.446;13.452;2022-09-21T07:32:59;12.70;99.90
19646;DHT22;9971;52.446;13.452;2022-09-21T07:38:03;12.90;99.90
19646;DHT22;9971;52.446;13.452;2022-09-21T07:43:04;12.90;99.90
19646;DHT22;9971;52.446;13.452;2022-09-21T07:48:06;13.00;99.90
19646;DHT22;9971;52.446;13.452;2022-09-21T07:53:09;13.10;99.90
19646;DHT22;9971;52.446;13.452;2022-09-21T07:58:12;13.10;99.90
19646;DHT22;9971;52.446;13.452;2022-09-21T08:03:21;13.30;99.90
19646;DHT22;9971;52.446;13.452;2022-09-21T08:08:26;13.40;99.90
19646;DHT22;9971;52.446;13.452;2022-09-21T08:13:28;13.40;99.90
19646;DHT22;9971;52.446;13.452;2022-09-21T08:18:30;13.50;99.90
19646;DHT22;9971;52.446;13.452;2022-09-21T08:23:33;13.70;99.90
19646;DHT22;9971;52.446;13.452;2022-09-21T08:28:37;13.80;99.90
19646;DHT22;9971;52.446;13.452;2022-09-21T08:33:40;14.00;99.90
19646;DHT22;9971;52.446;13.452;2022-09-21T08:38:42;14.20;99.90
19646;DHT22;9971;52.446;13.452;2022-09-21T08:43:47;14.40;99.90
19646;DHT22;9971;52.446;13.452;2022-09-21T08:48:54;14.50;99.90
19646;DHT22;9971;52.446;13.452;2022-09-21T08:53:57;14.80;99.90
19646;DHT22;9971;52.446;13.452;2022-09-21T08:59:01;14.80;99.90
19646;DHT22;9971;52.446;13.452;2022-09-21T09:09:25;15.00;99.90
19646;DHT22;9971;52.446;13.452;2022-09-21T09:19:56;15.60;99.90
19646;DHT22;9971;52.446;13.452;2022-09-21T09:24:57;15.80;99.90
19646;DHT22;9971;52.446;13.452;2022-09-21T09:30:14;15.80;99.90
19646;DHT22;9971;52.446;13.452;2022-09-21T09:35:21;15.90;99.90
19646;DHT22;9971;52.446;13.452;2022-09-21T09:40:22;16.10;99.90
19646;DHT22;9971;52.446;13.452;2022-09-21T09:45:31;16.20;99.90
19646;DHT22;9971;52.446;13.452;2022-09-21T09:50:32;16.30;99.90
19646;DHT22;9971;52.446;13.452;2022-09-21T09:55:40;16.60;99.90
19646;DHT22;9971;52.446;13.452;2022-09-21T10:00:41;16.80;99.90
19646;DHT22;9971;52.446;13.452;2022-09-21T10:05:44;16.80;99.90
19646;DHT22;9971;52.446;13.452;2022-09-21T10:10:46;16.80;99.90
19646;DHT22;9971;52.446;13.452;2022-09-21T10:15:51;17.20;99.90
19646;DHT22;9971;52.446;13.452;2022-09-21T10:21:08;17.20;99.90
19646;DHT22;9971;52.446;13.452;2022-09-21T10:26:11;17.50;99.90
19646;DHT22;9971;52.446;13.452;2022-09-21T10:31:18;17.70;99.90
19646;DHT22;9971;52.446;13.452;2022-09-21T10:36:36;17.80;99.90
19646;DHT22;9971;52.446;13.452;2022-09-21T10:41:38;18.10;99.90
19646;DHT22;9971;52.446;13.452;2022-09-21T10:46:40;18.50;99.90
19646;DHT22;9971;52.446;13.452;2022-09-21T10:51:43;18.80;99.90
19646;DHT22;9971;52.446;13.452;2022-09-21T10:56:53;19.10;99.90
19646;DHT22;9971;52.446;13.452;2022-09-21T11:01:55;19.30;99.90
19646;DHT22;9971;52.446;13.452;2022-09-21T11:07:14;19.30;99.90
19646;DHT22;9971;52.446;13.452;2022-09-21T11:12:38;19.20;99.90
19646;DHT22;9971;52.446;13.452;2022-09-21T11:17:50;19.00;99.90
19646;DHT22;9971;52.446;13.452;2022-09-21T11:22:57;19.40;99.90
19646;DHT22;9971;52.446;13.452;2022-09-21T11:28:00;19.80;99.90
19646;DHT22;9971;52.446;13.452;2022-09-21T11:33:14;20.10;99.90
19646;DHT22;9971;52.446;13.452;2022-09-21T11:43:58;20.90;99.90
19646;DHT22;9971;52.446;13.452;2022-09-21T11:49:20;20.80;99.90
19646;DHT22;9971;52.446;13.452;2022-09-21T11:54:24;20.30;99.90
19646;DHT22;9971;52.446;13.452;2022-09-21T11:59:31;20.00;99.90
19646;DHT22;9971;52.446;13.452;2022-09-21T12:04:46;19.60;99.90
19646;DHT22;9971;52.446;13.452;2022-09-21T12:15:28;19.10;99.90
19646;DHT22;9971;52.446;13.452;2022-09-21T12:20:38;19.40;99.90
19646;DHT22;9971;52.446;13.452;2022-09-21T12:25:40;19.80;99.90
19646;DHT22;9971;52.446;13.452;2022-09-21T12:30:42;20.30;99.90
19646;DHT22;9971;52.446;13.452;2022-09-21T12:35:46;20.00;99.90
19646;DHT22;9971;52.446;13.452;2022-09-21T12:45:58;19.30;99.90
19646;DHT22;9971;52.446;13.452;2022-09-21T12:51:03;19.40;99.90
19646;DHT22;9971;52.446;13.452;2022-09-21T12:56:11;19.80;99.90
19646;DHT22;9971;52.446;13.452;2022-09-21T13:01:35;20.30;99.90
19646;DHT22;9971;52.446;13.452;2022-09-21T13:06:46;20.60;99.90
19646;DHT22;9971;52.446;13.452;2022-09-21T13:11:53;20.60;99.90
19646;DHT22;9971;52.446;13.452;2022-09-21T13:16:57;20.50;99.90
19646;DHT22;9971;52.446;13.452;2022-09-21T13:22:08;20.00;99.90
19646;DHT22;9971;52.446;13.452;2022-09-21T13:27:10;20.10;99.90
19646;DHT22;9971;52.446;13.452;2022-09-21T13:32:21;20.30;99.90
19646;DHT22;9971;52.446;13.452;2022-09-21T13:37:26;20.70;99.90
19646;DHT22;9971;52.446;13.452;2022-09-21T13:42:45;20.90;99.90
19646;DHT22;9971;52.446;13.452;2022-09-21T13:47:48;20.70;99.90
19646;DHT22;9971;52.446;13.452;2022-09-21T13:52:50;20.60;99.90
19646;DHT22;9971;52.446;13.452;2022-09-21T13:57:51;20.90;99.90
19646;DHT22;9971;52.446;13.452;2022-09-21T14:02:57;21.20;99.90
19646;DHT22;9971;52.446;13.452;2022-09-21T14:08:05;21.10;99.90
19646;DHT22;9971;52.446;13.452;2022-09-21T14:13:20;21.20;99.90
19646;DHT22;9971;52.446;13.452;2022-09-21T14:23:32;21.20;99.90
19646;DHT22;9971;52.446;13.452;2022-09-21T14:28:37;21.20;99.90
19646;DHT22;9971;52.446;13.452;2022-09-21T14:33:47;21.20;99.90
19646;DHT22;9971;52.446;13.452;2022-09-21T14:38:51;21.30;99.90
19646;DHT22;9971;52.446;13.452;2022-09-21T14:43:52;21.40;99.90
19646;DHT22;9971;52.446;13.452;2022-09-21T14:54:27;21.30;99.90
19646;DHT22;9971;52.446;13.452;2022-09-21T15:04:43;21.60;99.90
19646;DHT22;9971;52.446;13.452;2022-09-21T15:09:55;21.90;99.90
19646;DHT22;9971;52.446;13.452;2022-09-21T15:15:09;22.00;99.90
19646;DHT22;9971;52.446;13.452;2022-09-21T15:20:15;21.70;99.90
19646;DHT22;9971;52.446;13.452;2022-09-21T15:25:18;21.10;99.90
19646;DHT22;9971;52.446;13.452;2022-09-21T15:30:21;20.90;99.90
19646;DHT22;9971;52.446;13.452;2022-09-21T15:35:24;20.80;99.90
19646;DHT22;9971;52.446;13.452;2022-09-21T15:40:29;20.90;99.90
19646;DHT22;9971;52.446;13.452;2022-09-21T15:45:47;20.80;99.90
19646;DHT22;9971;52.446;13.452;2022-09-21T15:50:35;20.70;99.90
19646;DHT22;9971;52.446;13.452;2022-09-21T15:55:38;20.70;99.90
19646;DHT22;9971;52.446;13.452;2022-09-21T16:00:40;20.70;99.90
19646;DHT22;9971;52.446;13.452;2022-09-21T16:05:44;20.60;99.90
19646;DHT22;9971;52.446;13.452;2022-09-21T16:10:44;20.60;99.90
19646;DHT22;9971;52.446;13.452;2022-09-21T16:15:58;20.40;99.90
19646;DHT22;9971;52.446;13.452;2022-09-21T16:20:49;20.20;99.90
19646;DHT22;9971;52.446;13.452;2022-09-21T16:25:52;20.10;99.90
19646;DHT22;9971;52.446;13.452;2022-09-21T16:30:54;19.70;99.90
19646;DHT22;9971;52.446;13.452;2022-09-21T16:35:55;19.30;99.90
19646;DHT22;9971;52.446;13.452;2022-09-21T16:41:00;19.00;99.90
19646;DHT22;9971;52.446;13.452;2022-09-21T16:46:01;18.60;99.90
19646;DHT22;9971;52.446;13.452;2022-09-21T16:51:11;18.40;99.90
19646;DHT22;9971;52.446;13.452;2022-09-21T16:56:13;18.20;99.90
19646;DHT22;9971;52.446;13.452;2022-09-21T17:01:17;17.90;99.90
19646;DHT22;9971;52.446;13.452;2022-09-21T17:06:18;17.70;99.90
19646;DHT22;9971;52.446;13.452;2022-09-21T17:11:19;17.60;99.90
19646;DHT22;9971;52.446;13.452;2022-09-21T17:16:22;17.30;99.90
19646;DHT22;9971;52.446;13.452;2022-09-21T17:21:24;17.20;99.90
19646;DHT22;9971;52.446;13.452;2022-09-21T17:26:26;17.00;99.90
19646;DHT22;9971;52.446;13.452;2022-09-21T17:31:29;16.80;99.90
19646;DHT22;9971;52.446;13.452;2022-09-21T17:36:31;16.70;99.90
19646;DHT22;9971;52.446;13.452;2022-09-21T17:47:04;16.40;99.90
19646;DHT22;9971;52.446;13.452;2022-09-21T17:52:02;16.30;99.90
19646;DHT22;9971;52.446;13.452;2022-09-21T18:02:38;16.00;99.90
19646;DHT22;9971;52.446;13.452;2022-09-21T18:07:41;15.90;99.90
19646;DHT22;9971;52.446;13.452;2022-09-21T18:12:47;15.70;99.90
19646;DHT22;9971;52.446;13.452;2022-09-21T18:17:56;15.60;99.90
19646;DHT22;9971;52.446;13.452;2022-09-21T18:23:18;15.40;99.90
19646;DHT22;9971;52.446;13.452;2022-09-21T18:28:32;15.40;99.90
19646;DHT22;9971;52.446;13.452;2022-09-21T18:33:40;15.20;99.90
19646;DHT22;9971;52.446;13.452;2022-09-21T18:38:44;15.00;99.90
19646;DHT22;9971;52.446;13.452;2022-09-21T18:44:09;14.70;99.90
19646;DHT22;9971;52.446;13.452;2022-09-21T18:49:15;14.40;99.90
19646;DHT22;9971;52.446;13.452;2022-09-21T18:54:19;14.10;99.90
19646;DHT22;9971;52.446;13.452;2022-09-21T18:59:20;14.00;99.90
19646;DHT22;9971;52.446;13.452;2022-09-21T19:04:24;13.70;99.90
19646;DHT22;9971;52.446;13.452;2022-09-21T19:09:32;13.60;99.90
19646;DHT22;9971;52.446;13.452;2022-09-21T19:14:44;13.50;99.90
19646;DHT22;9971;52.446;13.452;2022-09-21T19:20:02;13.40;99.90
19646;DHT22;9971;52.446;13.452;2022-09-21T19:25:06;13.30;99.90
19646;DHT22;9971;52.446;13.452;2022-09-21T19:30:06;13.30;99.90
19646;DHT22;9971;52.446;13.452;2022-09-21T19:35:20;13.20;99.90
19646;DHT22;9971;52.446;13.452;2022-09-21T19:40:22;13.10;99.90
19646;DHT22;9971;52.446;13.452;2022-09-21T20:10:33;13.10;99.90
19646;DHT22;9971;52.446;13.452;2022-09-21T20:15:37;15.70;99.90
19646;DHT22;9971;52.446;13.452;2022-09-21T20:20:35;14.50;99.90
19646;DHT22;9971;52.446;13.452;2022-09-21T20:25:57;13.60;99.90
19646;DHT22;9971;52.446;13.452;2022-09-21T20:30:57;13.10;99.90
19646;DHT22;9971;52.446;13.452;2022-09-21T20:36:00;12.80;99.90
19646;DHT22;9971;52.446;13.452;2022-09-21T20:41:04;12.70;99.90
19646;DHT22;9971;52.446;13.452;2022-09-21T20:46:05;12.60;99.90
19646;DHT22;9971;52.446;13.452;2022-09-21T20:51:08;12.50;99.90
19646;DHT22;9971;52.446;13.452;2022-09-21T20:56:09;12.50;99.90
19646;DHT22;9971;52.446;13.452;2022-09-21T21:01:13;12.50;99.90
19646;DHT22;9971;52.446;13.452;2022-09-21T21:06:16;12.50;99.90
19646;DHT22;9971;52.446;13.452;2022-09-21T21:11:20;12.60;99.90
19646;DHT22;9971;52.446;13.452;2022-09-21T21:16:22;12.50;99.90
19646;DHT22;9971;52.446;13.452;2022-09-21T21:21:25;12.60;99.90
19646;DHT22;9971;52.446;13.452;2022-09-21T21:26:27;12.60;99.90
19646;DHT22;9971;52.446;13.452;2022-09-21T21:31:30;12.60;99.90
19646;DHT22;9971;52.446;13.452;2022-09-21T21:36:33;12.60;99.90
19646;DHT22;9971;52.446;13.452;2022-09-21T21:41:35;12.60;99.90
19646;DHT22;9971;52.446;13.452;2022-09-21T21:46:38;12.60;99.90
19646;DHT22;9971;52.446;13.452;2022-09-21T21:51:40;12.60;99.90
19646;DHT22;9971;52.446;13.452;2022-09-21T21:56:43;12.60;99.90
19646;DHT22;9971;52.446;13.452;2022-09-21T22:01:47;12.60;99.90
19646;DHT22;9971;52.446;13.452;2022-09-21T22:06:49;12.60;99.90
19646;DHT22;9971;52.446;13.452;2022-09-21T22:11:51;12.70;99.90
19646;DHT22;9971;52.446;13.452;2022-09-21T22:16:53;12.70;99.90
19646;DHT22;9971;52.446;13.452;2022-09-21T22:21:56;12.70;99.90
19646;DHT22;9971;52.446;13.452;2022-09-21T22:26:59;12.80;99.90
19646;DHT22;9971;52.446;13.452;2022-09-21T22:32:02;12.70;99.90
19646;DHT22;9971;52.446;13.452;2022-09-21T22:37:04;12.80;99.90
19646;DHT22;9971;52.446;13.452;2022-09-21T22:42:09;12.80;99.90
19646;DHT22;9971;52.446;13.452;2022-09-21T22:47:09;12.70;99.90
19646;DHT22;9971;52.446;13.452;2022-09-21T22:52:11;12.70;99.90
19646;DHT22;9971;52.446;13.452;2022-09-21T22:57:15;12.70;99.90
19646;DHT22;9971;52.446;13.452;2022-09-21T23:02:17;12.60;99.90
19646;DHT22;9971;52.446;13.452;2022-09-21T23:07:19;12.60;99.90
19646;DHT22;9971;52.446;13.452;2022-09-21T23:12:22;12.60;99.90
19646;DHT22;9971;52.446;13.452;2022-09-21T23:17:25;12.50;99.90
19646;DHT22;9971;52.446;13.452;2022-09-21T23:22:27;12.50;99.90
19646;DHT22;9971;52.446;13.452;2022-09-21T23:27:29;12.50;99.90
19646;DHT22;9971;52.446;13.452;2022-09-21T23:32:31;12.60;99.90
19646;DHT22;9971;52.446;13.452;2022-09-21T23:37:34;12.60;99.90
19646;DHT22;9971;52.446;13.452;2022-09-21T23:42:36;12.60;99.90
19646;DHT22;9971;52.446;13.452;2022-09-21T23:47:39;12.70;99.90
19646;DHT22;9971;52.446;13.452;2022-09-21T23:52:42;12.70;99.90
19646;DHT22;9971;52.446;13.452;2022-09-21T23:57:45;12.70;99.90
